sensor_id;sensor_type;location;lat;lon;timestamp;pressure;altitude;pressure_sealevel;temperature;humidity
69060;BME280;56135;37.534;-122.308;2022-12-07T00:01:26;101676.28;;;11.84;100.00
69060;BME280;56135;37.534;-122.308;2022-12-07T00:03:53;101687.78;;;11.75;100.00
69060;BME280;56135;37.534;-122.308;2022-12-07T00:06:20;101686.00;;;11.77;100.00
69060;BME280;56135;37.534;-122.308;2022-12-07T00:08:46;101686.00;;;11.69;100.00
69060;BME280;56135;37.534;-122.308;2022-12-07T00:11:16;101687.78;;;11.71;100.00
69060;BME280;56135;37.534;-122.308;2022-12-07T00:13:43;101693.09;;;11.67;100.00
69060;BME280;56135;37.534;-122.308;2022-12-07T00:16:14;101693.94;;;11.69;100.00
69060;BME280;56135;37.534;-122.308;2022-12-07T00:18:40;101693.97;;;11.65;100.00
69060;BME280;56135;37.534;-122.308;2022-12-07T00:21:10;101694.88;;;11.62;100.00
69060;BME280;56135;37.534;-122.308;2022-12-07T00:23:37;101699.28;;;11.59;100.00
69060;BME280;56135;37.534;-122.308;2022-12-07T00:26:03;101696.66;;;11.52;100.00
69060;BME280;56135;37.534;-122.308;2022-12-07T00:28:29;101694.88;;;11.47;100.00
69060;BME280;56135;37.534;-122.308;2022-12-07T00:31:05;101698.44;;;11.47;100.00
69060;BME280;56135;37.534;-122.308;2022-12-07T00:33:32;101698.41;;;11.43;100.00
69060;BME280;56135;37.534;-122.308;2022-12-07T00:35:58;101706.38;;;11.40;100.00
69060;BME280;56135;37.534;-122.308;2022-12-07T00:38:24;101701.97;;;11.22;100.00
69060;BME280;56135;37.534;-122.308;2022-12-07T00:40:57;101708.13;;;11.16;100.00
69060;BME280;56135;37.534;-122.308;2022-12-07T00:43:23;101714.31;;;11.10;100.00
69060;BME280;56135;37.534;-122.308;2022-12-07T00:45:48;101709.88;;;11.05;100.00
69060;BME280;56135;37.534;-122.308;2022-12-07T00:48:14;101718.69;;;10.97;100.00
69060;BME280;56135;37.534;-122.308;2022-12-07T00:50:40;101723.97;;;10.91;100.00
69060;BME280;56135;37.534;-122.308;2022-12-07T00:53:06;101712.50;;;10.78;100.00
69060;BME280;56135;37.534;-122.308;2022-12-07T00:55:35;101724.81;;;10.64;100.00
69060;BME280;56135;37.534;-122.308;2022-12-07T00:58:00;101727.44;;;10.58;100.00
69060;BME280;56135;37.534;-122.308;2022-12-07T01:00:26;101726.53;;;10.54;100.00
69060;BME280;56135;37.534;-122.308;2022-12-07T01:02:52;101721.25;;;10.48;100.00
69060;BME280;56135;37.534;-122.308;2022-12-07T01:05:18;101727.38;;;10.41;100.00
69060;BME280;56135;37.534;-122.308;2022-12-07T01:07:44;101727.38;;;10.38;100.00
69060;BME280;56135;37.534;-122.308;2022-12-07T01:10:12;101730.81;;;10.30;100.00
69060;BME280;56135;37.534;-122.308;2022-12-07T01:12:40;101736.03;;;10.16;100.00
69060;BME280;56135;37.534;-122.308;2022-12-07T01:15:06;101736.00;;;10.12;100.00
69060;BME280;56135;37.534;-122.308;2022-12-07T01:17:32;101737.72;;;10.00;100.00
69060;BME280;56135;37.534;-122.308;2022-12-07T01:19:58;101742.03;;;9.89;100.00
69060;BME280;56135;37.534;-122.308;2022-12-07T01:22:24;101745.47;;;9.73;100.00
69060;BME280;56135;37.534;-122.308;2022-12-07T01:24:50;101738.34;;;9.61;100.00
69060;BME280;56135;37.534;-122.308;2022-12-07T01:27:16;101736.50;;;9.46;100.00
69060;BME280;56135;37.534;-122.308;2022-12-07T01:29:41;101742.53;;;9.32;100.00
69060;BME280;56135;37.534;-122.308;2022-12-07T01:32:07;101745.91;;;9.17;100.00
69060;BME280;56135;37.534;-122.308;2022-12-07T01:34:33;101743.16;;;9.05;100.00
69060;BME280;56135;37.534;-122.308;2022-12-07T01:36:59;101751.84;;;8.95;100.00
69060;BME280;56135;37.534;-122.308;2022-12-07T01:39:25;101750.88;;;8.83;100.00
69060;BME280;56135;37.534;-122.308;2022-12-07T01:41:50;101755.13;;;8.71;100.00
69060;BME280;56135;37.534;-122.308;2022-12-07T01:44:26;101753.25;;;8.62;100.00
69060;BME280;56135;37.534;-122.308;2022-12-07T01:46:59;101761.03;;;8.51;100.00
69060;BME280;56135;37.534;-122.308;2022-12-07T01:49:47;101757.38;;;8.40;100.00
69060;BME280;56135;37.534;-122.308;2022-12-07T01:52:15;101762.53;;;8.30;100.00
69060;BME280;56135;37.534;-122.308;2022-12-07T01:54:44;101756.22;;;8.21;100.00
69060;BME280;56135;37.534;-122.308;2022-12-07T01:57:10;101767.53;;;8.12;100.00
69060;BME280;56135;37.534;-122.308;2022-12-07T01:59:37;101755.13;;;8.05;100.00
69060;BME280;56135;37.534;-122.308;2022-12-07T02:02:04;101761.13;;;7.94;100.00
69060;BME280;56135;37.534;-122.308;2022-12-07T02:04:33;101765.41;;;7.86;100.00
69060;BME280;56135;37.534;-122.308;2022-12-07T02:06:59;101764.44;;;7.79;100.00
69060;BME280;56135;37.534;-122.308;2022-12-07T02:09:25;101770.47;;;7.72;100.00
69060;BME280;56135;37.534;-122.308;2022-12-07T02:11:51;101776.50;;;7.66;100.00
69060;BME280;56135;37.534;-122.308;2022-12-07T02:14:17;101778.22;;;7.63;100.00
69060;BME280;56135;37.534;-122.308;2022-12-07T02:16:48;101780.63;;;7.50;100.00
69060;BME280;56135;37.534;-122.308;2022-12-07T02:22:22;101783.88;;;7.35;100.00
69060;BME280;56135;37.534;-122.308;2022-12-07T02:32:24;101801.91;;;7.14;100.00
69060;BME280;56135;37.534;-122.308;2022-12-07T02:34:54;101805.28;;;7.07;100.00
69060;BME280;56135;37.534;-122.308;2022-12-07T02:39:55;101807.66;;;6.93;100.00
69060;BME280;56135;37.534;-122.308;2022-12-07T02:42:25;101810.13;;;6.85;100.00
69060;BME280;56135;37.534;-122.308;2022-12-07T02:44:53;101811.78;;;6.81;100.00
69060;BME280;56135;37.534;-122.308;2022-12-07T02:47:19;101816.13;;;6.78;100.00
69060;BME280;56135;37.534;-122.308;2022-12-07T02:49:46;101813.34;;;6.70;100.00
69060;BME280;56135;37.534;-122.308;2022-12-07T02:52:13;101813.25;;;6.67;100.00
69060;BME280;56135;37.534;-122.308;2022-12-07T02:54:38;101819.31;;;6.63;100.00
69060;BME280;56135;37.534;-122.308;2022-12-07T02:57:14;101818.44;;;6.62;100.00
69060;BME280;56135;37.534;-122.308;2022-12-07T03:02:17;101825.28;;;6.56;100.00
69060;BME280;56135;37.534;-122.308;2022-12-07T03:07:28;101823.44;;;6.50;100.00
69060;BME280;56135;37.534;-122.308;2022-12-07T03:12:29;101826.78;;;6.44;100.00
69060;BME280;56135;37.534;-122.308;2022-12-07T03:15:00;101824.94;;;6.40;100.00
69060;BME280;56135;37.534;-122.308;2022-12-07T03:17:27;101828.38;;;6.38;100.00
69060;BME280;56135;37.534;-122.308;2022-12-07T03:19:56;101834.47;;;6.35;100.00
69060;BME280;56135;37.534;-122.308;2022-12-07T03:22:23;101836.16;;;6.31;100.00
69060;BME280;56135;37.534;-122.308;2022-12-07T03:24:52;101836.97;;;6.29;100.00
69060;BME280;56135;37.534;-122.308;2022-12-07T03:27:20;101840.38;;;6.25;100.00
69060;BME280;56135;37.534;-122.308;2022-12-07T03:29:54;101843.75;;;6.21;100.00
69060;BME280;56135;37.534;-122.308;2022-12-07T03:32:25;101837.56;;;6.17;100.00
69060;BME280;56135;37.534;-122.308;2022-12-07T03:35:01;101847.09;;;6.13;100.00
69060;BME280;56135;37.534;-122.308;2022-12-07T03:37:31;101844.44;;;6.12;100.00
69060;BME280;56135;37.534;-122.308;2022-12-07T03:42:43;101853.00;;;6.05;100.00
69060;BME280;56135;37.534;-122.308;2022-12-07T03:45:09;101848.63;;;6.04;100.00
69060;BME280;56135;37.534;-122.308;2022-12-07T03:47:46;101852.91;;;6.00;100.00
69060;BME280;56135;37.534;-122.308;2022-12-07T03:50:15;101858.16;;;6.00;100.00
69060;BME280;56135;37.534;-122.308;2022-12-07T03:53:39;101856.31;;;5.97;100.00
69060;BME280;56135;37.534;-122.308;2022-12-07T03:55:33;101854.53;;;5.96;100.00
69060;BME280;56135;37.534;-122.308;2022-12-07T03:58:07;101858.00;;;5.95;100.00
69060;BME280;56135;37.534;-122.308;2022-12-07T04:00:35;101860.53;;;5.91;100.00
69060;BME280;56135;37.534;-122.308;2022-12-07T04:03:01;101864.00;;;5.90;100.00
69060;BME280;56135;37.534;-122.308;2022-12-07T04:05:27;101862.19;;;5.87;100.00
69060;BME280;56135;37.534;-122.308;2022-12-07T04:07:53;101868.28;;;5.86;100.00
69060;BME280;56135;37.534;-122.308;2022-12-07T04:10:19;101863.00;;;5.84;100.00
69060;BME280;56135;37.534;-122.308;2022-12-07T04:12:45;101871.69;;;5.83;100.00
69060;BME280;56135;37.534;-122.308;2022-12-07T04:15:11;101876.06;;;5.83;100.00
69060;BME280;56135;37.534;-122.308;2022-12-07T04:17:37;101883.91;;;5.81;100.00
69060;BME280;56135;37.534;-122.308;2022-12-07T04:20:03;101881.28;;;5.81;100.00
69060;BME280;56135;37.534;-122.308;2022-12-07T04:22:29;101883.88;;;5.80;100.00
69060;BME280;56135;37.534;-122.308;2022-12-07T04:24:55;101886.47;;;5.78;100.00
69060;BME280;56135;37.534;-122.308;2022-12-07T04:27:21;101886.41;;;5.77;100.00
69060;BME280;56135;37.534;-122.308;2022-12-07T04:29:47;101884.66;;;5.76;100.00
69060;BME280;56135;37.534;-122.308;2022-12-07T04:32:13;101888.94;;;5.74;100.00
69060;BME280;56135;37.534;-122.308;2022-12-07T04:34:38;101885.41;;;5.72;100.00
69060;BME280;56135;37.534;-122.308;2022-12-07T04:37:04;101885.41;;;5.72;100.00
69060;BME280;56135;37.534;-122.308;2022-12-07T04:39:31;101887.97;;;5.70;100.00
69060;BME280;56135;37.534;-122.308;2022-12-07T04:41:57;101890.56;;;5.68;100.00
69060;BME280;56135;37.534;-122.308;2022-12-07T04:44:24;101894.03;;;5.67;100.00
69060;BME280;56135;37.534;-122.308;2022-12-07T04:46:50;101889.56;;;5.63;100.00
69060;BME280;56135;37.534;-122.308;2022-12-07T04:49:17;101897.34;;;5.60;100.00
69060;BME280;56135;37.534;-122.308;2022-12-07T04:51:43;101897.28;;;5.57;100.00
69060;BME280;56135;37.534;-122.308;2022-12-07T04:54:09;101904.19;;;5.55;100.00
69060;BME280;56135;37.534;-122.308;2022-12-07T04:56:35;101908.53;;;5.53;100.00
69060;BME280;56135;37.534;-122.308;2022-12-07T04:59:01;101911.97;;;5.50;100.00
69060;BME280;56135;37.534;-122.308;2022-12-07T05:01:27;101915.41;;;5.49;100.00
69060;BME280;56135;37.534;-122.308;2022-12-07T05:03:53;101909.28;;;5.49;100.00
69060;BME280;56135;37.534;-122.308;2022-12-07T05:06:19;101914.50;;;5.49;100.00
69060;BME280;56135;37.534;-122.308;2022-12-07T05:08:45;101910.97;;;5.47;100.00
69060;BME280;56135;37.534;-122.308;2022-12-07T05:11:11;101905.75;;;5.47;100.00
69060;BME280;56135;37.534;-122.308;2022-12-07T05:13:57;101905.69;;;5.45;100.00
69060;BME280;56135;37.534;-122.308;2022-12-07T05:16:23;101903.91;;;5.44;100.00
69060;BME280;56135;37.534;-122.308;2022-12-07T05:18:49;101903.03;;;5.44;100.00
69060;BME280;56135;37.534;-122.308;2022-12-07T05:21:15;101907.34;;;5.42;100.00
69060;BME280;56135;37.534;-122.308;2022-12-07T05:23:41;101908.97;;;5.38;100.00
69060;BME280;56135;37.534;-122.308;2022-12-07T05:26:06;101910.69;;;5.36;100.00
69060;BME280;56135;37.534;-122.308;2022-12-07T05:28:32;101911.50;;;5.33;100.00
69060;BME280;56135;37.534;-122.308;2022-12-07T05:30:58;101912.25;;;5.29;100.00
69060;BME280;56135;37.534;-122.308;2022-12-07T05:33:24;101914.78;;;5.26;100.00
69060;BME280;56135;37.534;-122.308;2022-12-07T05:35:50;101914.75;;;5.25;100.00
69060;BME280;56135;37.534;-122.308;2022-12-07T05:38:15;101913.75;;;5.21;100.00
69060;BME280;56135;37.534;-122.308;2022-12-07T05:40:41;101914.50;;;5.17;100.00
69060;BME280;56135;37.534;-122.308;2022-12-07T05:43:07;101918.72;;;5.12;100.00
69060;BME280;56135;37.534;-122.308;2022-12-07T05:45:33;101927.47;;;5.11;100.00
69060;BME280;56135;37.534;-122.308;2022-12-07T05:47:59;101926.50;;;5.09;100.00
69060;BME280;56135;37.534;-122.308;2022-12-07T05:50:47;101923.84;;;5.07;100.00
69060;BME280;56135;37.534;-122.308;2022-12-07T05:53:13;101926.44;;;5.06;100.00
69060;BME280;56135;37.534;-122.308;2022-12-07T05:55:39;101923.03;;;5.08;100.00
69060;BME280;56135;37.534;-122.308;2022-12-07T05:58:05;101926.47;;;5.07;100.00
69060;BME280;56135;37.534;-122.308;2022-12-07T06:00:49;101934.34;;;5.07;100.00
69060;BME280;56135;37.534;-122.308;2022-12-07T06:03:15;101925.59;;;5.07;100.00
69060;BME280;56135;37.534;-122.308;2022-12-07T06:05:41;101934.34;;;5.07;100.00
69060;BME280;56135;37.534;-122.308;2022-12-07T06:08:07;101936.13;;;5.08;100.00
69060;BME280;56135;37.534;-122.308;2022-12-07T06:10:33;101939.53;;;5.06;100.00
69060;BME280;56135;37.534;-122.308;2022-12-07T06:12:59;101935.13;;;5.05;100.00
69060;BME280;56135;37.534;-122.308;2022-12-07T06:15:24;101945.56;;;5.03;100.00
69060;BME280;56135;37.534;-122.308;2022-12-07T06:17:50;101942.91;;;5.01;100.00
69060;BME280;56135;37.534;-122.308;2022-12-07T06:20:16;101949.91;;;5.03;100.00
69060;BME280;56135;37.534;-122.308;2022-12-07T06:22:42;101952.53;;;5.03;100.00
69060;BME280;56135;37.534;-122.308;2022-12-07T06:25:08;101951.59;;;5.00;100.00
69060;BME280;56135;37.534;-122.308;2022-12-07T06:27:35;101948.03;;;4.98;100.00
69060;BME280;56135;37.534;-122.308;2022-12-07T06:30:01;101953.28;;;4.98;100.00
69060;BME280;56135;37.534;-122.308;2022-12-07T06:32:35;101948.13;;;5.00;100.00
69060;BME280;56135;37.534;-122.308;2022-12-07T06:35:01;101949.00;;;5.00;100.00
69060;BME280;56135;37.534;-122.308;2022-12-07T06:37:27;101957.75;;;5.03;100.00
69060;BME280;56135;37.534;-122.308;2022-12-07T06:39:53;101950.78;;;5.01;100.00
69060;BME280;56135;37.534;-122.308;2022-12-07T06:42:19;101959.50;;;5.02;100.00
69060;BME280;56135;37.534;-122.308;2022-12-07T06:44:44;101959.50;;;5.02;100.00
69060;BME280;56135;37.534;-122.308;2022-12-07T06:47:10;101963.88;;;5.01;100.00
69060;BME280;56135;37.534;-122.308;2022-12-07T06:49:36;101961.13;;;4.98;100.00
69060;BME280;56135;37.534;-122.308;2022-12-07T06:52:02;101958.44;;;4.95;100.00
69060;BME280;56135;37.534;-122.308;2022-12-07T06:54:30;101963.59;;;4.92;100.00
69060;BME280;56135;37.534;-122.308;2022-12-07T06:56:55;101960.03;;;4.90;100.00
69060;BME280;56135;37.534;-122.308;2022-12-07T06:59:21;101959.09;;;4.88;100.00
69060;BME280;56135;37.534;-122.308;2022-12-07T07:01:47;101958.06;;;4.83;100.00
69060;BME280;56135;37.534;-122.308;2022-12-07T07:04:13;101958.88;;;4.80;100.00
69060;BME280;56135;37.534;-122.308;2022-12-07T07:06:39;101958.81;;;4.79;100.00
69060;BME280;56135;37.534;-122.308;2022-12-07T07:09:07;101963.03;;;4.74;100.00
69060;BME280;56135;37.534;-122.308;2022-12-07T07:11:34;101969.16;;;4.74;100.00
69060;BME280;56135;37.534;-122.308;2022-12-07T07:14:00;101960.38;;;4.72;100.00
69060;BME280;56135;37.534;-122.308;2022-12-07T07:16:29;101965.59;;;4.72;100.00
69060;BME280;56135;37.534;-122.308;2022-12-07T07:18:56;101974.25;;;4.70;100.00
69060;BME280;56135;37.534;-122.308;2022-12-07T07:21:22;101967.19;;;4.67;100.00
69060;BME280;56135;37.534;-122.308;2022-12-07T07:23:48;101969.81;;;4.67;100.00
69060;BME280;56135;37.534;-122.308;2022-12-07T07:26:14;101972.44;;;4.67;100.00
69060;BME280;56135;37.534;-122.308;2022-12-07T07:28:39;101974.19;;;4.68;100.00
69060;BME280;56135;37.534;-122.308;2022-12-07T07:31:08;101980.19;;;4.65;100.00
69060;BME280;56135;37.534;-122.308;2022-12-07T07:33:36;101978.44;;;4.64;100.00
69060;BME280;56135;37.534;-122.308;2022-12-07T07:36:05;101974.88;;;4.62;100.00
69060;BME280;56135;37.534;-122.308;2022-12-07T07:38:31;101981.81;;;4.60;100.00
69060;BME280;56135;37.534;-122.308;2022-12-07T07:40:56;101980.91;;;4.60;100.00
69060;BME280;56135;37.534;-122.308;2022-12-07T07:43:25;101976.50;;;4.59;100.00
69060;BME280;56135;37.534;-122.308;2022-12-07T07:45:51;101984.44;;;4.60;100.00
69060;BME280;56135;37.534;-122.308;2022-12-07T07:48:17;101980.03;;;4.59;100.00
69060;BME280;56135;37.534;-122.308;2022-12-07T07:50:43;101981.81;;;4.60;100.00
69060;BME280;56135;37.534;-122.308;2022-12-07T07:53:09;101986.13;;;4.60;100.00
69060;BME280;56135;37.534;-122.308;2022-12-07T07:55:34;101985.25;;;4.59;100.00
69060;BME280;56135;37.534;-122.308;2022-12-07T07:58:00;101987.94;;;4.61;100.00
69060;BME280;56135;37.534;-122.308;2022-12-07T08:00:26;101987.06;;;4.60;100.00
69060;BME280;56135;37.534;-122.308;2022-12-07T08:02:52;101982.66;;;4.59;100.00
69060;BME280;56135;37.534;-122.308;2022-12-07T08:05:18;101983.47;;;4.58;100.00
69060;BME280;56135;37.534;-122.308;2022-12-07T08:07:46;101981.81;;;4.60;100.00
69060;BME280;56135;37.534;-122.308;2022-12-07T08:10:14;101978.34;;;4.61;100.00
69060;BME280;56135;37.534;-122.308;2022-12-07T08:12:41;101985.34;;;4.62;100.00
69060;BME280;56135;37.534;-122.308;2022-12-07T08:15:26;101981.75;;;4.59;100.00
69060;BME280;56135;37.534;-122.308;2022-12-07T08:17:55;101979.13;;;4.59;100.00
69060;BME280;56135;37.534;-122.308;2022-12-07T08:20:21;101979.13;;;4.59;100.00
69060;BME280;56135;37.534;-122.308;2022-12-07T08:22:47;101978.16;;;4.55;100.00
69060;BME280;56135;37.534;-122.308;2022-12-07T08:25:13;101975.53;;;4.55;100.00
69060;BME280;56135;37.534;-122.308;2022-12-07T08:27:39;101986.94;;;4.57;100.00
69060;BME280;56135;37.534;-122.308;2022-12-07T08:30:05;101972.19;;;4.59;100.00
69060;BME280;56135;37.534;-122.308;2022-12-07T08:32:31;101975.63;;;4.58;100.00
69060;BME280;56135;37.534;-122.308;2022-12-07T08:34:56;101963.53;;;4.62;100.00
69060;BME280;56135;37.534;-122.308;2022-12-07T08:37:22;101974.84;;;4.61;100.00
69060;BME280;56135;37.534;-122.308;2022-12-07T08:39:48;101970.34;;;4.57;100.00
69060;BME280;56135;37.534;-122.308;2022-12-07T08:42:14;101966.81;;;4.56;100.00
69060;BME280;56135;37.534;-122.308;2022-12-07T08:44:39;101976.38;;;4.54;100.00
69060;BME280;56135;37.534;-122.308;2022-12-07T08:47:05;101974.59;;;4.53;100.00
69060;BME280;56135;37.534;-122.308;2022-12-07T08:49:33;101971.06;;;4.51;100.00
69060;BME280;56135;37.534;-122.308;2022-12-07T08:52:01;101962.25;;;4.49;100.00
69060;BME280;56135;37.534;-122.308;2022-12-07T08:54:29;101973.66;;;4.51;100.00
69060;BME280;56135;37.534;-122.308;2022-12-07T08:56:55;101963.91;;;4.47;100.00
69060;BME280;56135;37.534;-122.308;2022-12-07T08:59:21;101974.47;;;4.48;100.00
69060;BME280;56135;37.534;-122.308;2022-12-07T09:01:48;101974.47;;;4.48;100.00
69060;BME280;56135;37.534;-122.308;2022-12-07T09:04:14;101967.50;;;4.49;100.00
69060;BME280;56135;37.534;-122.308;2022-12-07T09:06:41;101974.38;;;4.47;100.00
69060;BME280;56135;37.534;-122.308;2022-12-07T09:09:06;101972.63;;;4.46;100.00
69060;BME280;56135;37.534;-122.308;2022-12-07T09:11:33;101977.06;;;4.48;100.00
69060;BME280;56135;37.534;-122.308;2022-12-07T09:13:59;101974.38;;;4.47;100.00
69060;BME280;56135;37.534;-122.308;2022-12-07T09:16:25;101976.13;;;4.46;100.00
69060;BME280;56135;37.534;-122.308;2022-12-07T09:18:51;101982.97;;;4.43;100.00
69060;BME280;56135;37.534;-122.308;2022-12-07T09:21:16;101990.75;;;4.40;100.00
69060;BME280;56135;37.534;-122.308;2022-12-07T09:23:42;101991.47;;;4.36;100.00
69060;BME280;56135;37.534;-122.308;2022-12-07T09:26:08;101984.41;;;4.33;100.00
69060;BME280;56135;37.534;-122.308;2022-12-07T09:28:34;101985.22;;;4.30;100.00
69060;BME280;56135;37.534;-122.308;2022-12-07T09:31:00;101979.84;;;4.26;100.00
69060;BME280;56135;37.534;-122.308;2022-12-07T09:33:25;101978.94;;;4.25;100.00
69060;BME280;56135;37.534;-122.308;2022-12-07T09:35:51;101978.06;;;4.25;100.00
69060;BME280;56135;37.534;-122.308;2022-12-07T09:38:18;101990.19;;;4.23;100.00
69060;BME280;56135;37.534;-122.308;2022-12-07T09:40:44;101983.13;;;4.20;100.00
69060;BME280;56135;37.534;-122.308;2022-12-07T09:43:15;101982.19;;;4.18;100.00
69060;BME280;56135;37.534;-122.308;2022-12-07T09:45:42;101980.41;;;4.17;100.00
69060;BME280;56135;37.534;-122.308;2022-12-07T09:48:19;101982.97;;;4.15;100.00
69060;BME280;56135;37.534;-122.308;2022-12-07T09:50:47;101991.66;;;4.14;100.00
69060;BME280;56135;37.534;-122.308;2022-12-07T09:53:19;101983.72;;;4.11;100.00
69060;BME280;56135;37.534;-122.308;2022-12-07T09:55:46;101982.72;;;4.08;100.00
69060;BME280;56135;37.534;-122.308;2022-12-07T09:58:16;101983.50;;;4.05;100.00
69060;BME280;56135;37.534;-122.308;2022-12-07T10:00:44;101987.72;;;4.01;100.00
69060;BME280;56135;37.534;-122.308;2022-12-07T10:03:10;101992.81;;;3.97;100.00
69060;BME280;56135;37.534;-122.308;2022-12-07T10:05:38;101991.91;;;3.96;100.00
69060;BME280;56135;37.534;-122.308;2022-12-07T10:08:11;101991.06;;;3.97;100.00
69060;BME280;56135;37.534;-122.308;2022-12-07T10:10:37;101995.44;;;3.97;100.00
69060;BME280;56135;37.534;-122.308;2022-12-07T10:21:17;102003.84;;;3.88;100.00
69060;BME280;56135;37.534;-122.308;2022-12-07T10:26:31;102010.63;;;3.83;100.00
69060;BME280;56135;37.534;-122.308;2022-12-07T10:29:02;102010.56;;;3.81;100.00
69060;BME280;56135;37.534;-122.308;2022-12-07T10:31:29;102006.16;;;3.80;100.00
69060;BME280;56135;37.534;-122.308;2022-12-07T10:33:59;102005.25;;;3.78;100.00
69060;BME280;56135;37.534;-122.308;2022-12-07T10:41:29;102012.84;;;3.72;100.00
69060;BME280;56135;37.534;-122.308;2022-12-07T10:43:56;102011.97;;;3.72;100.00
69060;BME280;56135;37.534;-122.308;2022-12-07T10:56:36;102007.16;;;3.58;100.00
69060;BME280;56135;37.534;-122.308;2022-12-07T10:59:16;102011.47;;;3.58;100.00
69060;BME280;56135;37.534;-122.308;2022-12-07T11:01:48;102013.03;;;3.53;100.00
69060;BME280;56135;37.534;-122.308;2022-12-07T11:04:24;102015.59;;;3.51;100.00
69060;BME280;56135;37.534;-122.308;2022-12-07T11:06:55;102020.81;;;3.51;100.00
69060;BME280;56135;37.534;-122.308;2022-12-07T11:09:33;102022.53;;;3.50;100.00
69060;BME280;56135;37.534;-122.308;2022-12-07T11:12:05;102023.28;;;3.46;100.00
69060;BME280;56135;37.534;-122.308;2022-12-07T11:14:51;102017.13;;;3.46;100.00
69060;BME280;56135;37.534;-122.308;2022-12-07T11:18:03;102019.69;;;3.44;100.00
69060;BME280;56135;37.534;-122.308;2022-12-07T11:20:32;102015.38;;;3.45;100.00
69060;BME280;56135;37.534;-122.308;2022-12-07T11:22:57;102007.66;;;3.48;100.00
69060;BME280;56135;37.534;-122.308;2022-12-07T11:25:32;102006.91;;;3.52;100.00
69060;BME280;56135;37.534;-122.308;2022-12-07T11:30:42;102022.53;;;3.50;100.00
69060;BME280;56135;37.534;-122.308;2022-12-07T11:33:22;102016.41;;;3.50;100.00
69060;BME280;56135;37.534;-122.308;2022-12-07T11:38:23;102022.50;;;3.49;100.00
69060;BME280;56135;37.534;-122.308;2022-12-07T11:40:52;102031.16;;;3.48;100.00
69060;BME280;56135;37.534;-122.308;2022-12-07T11:43:24;102017.19;;;3.47;100.00
69060;BME280;56135;37.534;-122.308;2022-12-07T11:46:13;102024.03;;;3.44;100.00
69060;BME280;56135;37.534;-122.308;2022-12-07T11:48:49;102030.91;;;3.42;100.00
69060;BME280;56135;37.534;-122.308;2022-12-07T11:51:18;102030.16;;;3.44;100.00
69060;BME280;56135;37.534;-122.308;2022-12-07T11:56:21;102032.59;;;3.40;100.00
69060;BME280;56135;37.534;-122.308;2022-12-07T11:58:49;102025.59;;;3.39;100.00
69060;BME280;56135;37.534;-122.308;2022-12-07T12:06:34;102044.69;;;3.38;100.00
69060;BME280;56135;37.534;-122.308;2022-12-07T12:09:09;102043.81;;;3.37;100.00
69060;BME280;56135;37.534;-122.308;2022-12-07T12:22:16;102044.59;;;3.34;100.00
69060;BME280;56135;37.534;-122.308;2022-12-07T12:24:43;102047.16;;;3.33;100.00
69060;BME280;56135;37.534;-122.308;2022-12-07T12:27:23;102045.38;;;3.32;100.00
69060;BME280;56135;37.534;-122.308;2022-12-07T12:29:54;102043.69;;;3.34;100.00
69060;BME280;56135;37.534;-122.308;2022-12-07T12:32:21;102041.94;;;3.33;100.00
69060;BME280;56135;37.534;-122.308;2022-12-07T12:35:17;102055.81;;;3.32;100.00
69060;BME280;56135;37.534;-122.308;2022-12-07T12:37:45;102059.19;;;3.29;100.00
69060;BME280;56135;37.534;-122.308;2022-12-07T12:40:57;102054.75;;;3.27;100.00
69060;BME280;56135;37.534;-122.308;2022-12-07T12:42:57;102059.00;;;3.25;100.00
69060;BME280;56135;37.534;-122.308;2022-12-07T12:45:24;102061.63;;;3.25;100.00
69060;BME280;56135;37.534;-122.308;2022-12-07T12:47:55;102069.41;;;3.23;100.00
69060;BME280;56135;37.534;-122.308;2022-12-07T12:50:31;102067.50;;;3.19;100.00
69060;BME280;56135;37.534;-122.308;2022-12-07T12:52:58;102070.94;;;3.18;100.00
69060;BME280;56135;37.534;-122.308;2022-12-07T12:55:30;102072.63;;;3.16;100.00
69060;BME280;56135;37.534;-122.308;2022-12-07T13:00:44;102077.84;;;3.16;100.00
69060;BME280;56135;37.534;-122.308;2022-12-07T13:06:19;102079.50;;;3.14;100.00
69060;BME280;56135;37.534;-122.308;2022-12-07T13:08:45;102087.28;;;3.12;100.00
69060;BME280;56135;37.534;-122.308;2022-12-07T13:13:43;102085.38;;;3.08;100.00
69060;BME280;56135;37.534;-122.308;2022-12-07T13:18:36;102088.75;;;3.06;100.00
69060;BME280;56135;37.534;-122.308;2022-12-07T13:23:38;102091.38;;;3.06;100.00
69060;BME280;56135;37.534;-122.308;2022-12-07T13:29:09;102090.47;;;3.05;100.00
69060;BME280;56135;37.534;-122.308;2022-12-07T13:33:54;102095.44;;;2.99;100.00
69060;BME280;56135;37.534;-122.308;2022-12-07T13:36:24;102098.81;;;2.96;100.00
69060;BME280;56135;37.534;-122.308;2022-12-07T13:38:55;102106.66;;;2.96;100.00
69060;BME280;56135;37.534;-122.308;2022-12-07T13:41:22;102101.50;;;2.98;100.00
69060;BME280;56135;37.534;-122.308;2022-12-07T13:43:53;102108.44;;;2.97;100.00
69060;BME280;56135;37.534;-122.308;2022-12-07T13:46:23;102108.44;;;2.97;100.00
69060;BME280;56135;37.534;-122.308;2022-12-07T13:48:51;102100.63;;;2.97;100.00
69060;BME280;56135;37.534;-122.308;2022-12-07T13:51:21;102111.13;;;2.99;100.00
69060;BME280;56135;37.534;-122.308;2022-12-07T13:53:49;102108.50;;;2.99;100.00
69060;BME280;56135;37.534;-122.308;2022-12-07T13:56:15;102114.50;;;2.96;100.00
69060;BME280;56135;37.534;-122.308;2022-12-07T13:58:41;102109.22;;;2.95;100.00